Date,TemperatureHighF,TemperatureAvgF,TemperatureLowF,DewpointHighF,DewpointAvgF,DewpointLowF,HumidityHigh,HumidityAvg,HumidityLow,PressureMaxIn,PressureMinIn,WindSpeedMaxMPH,WindSpeedAvgMPH,GustSpeedMaxMPH,PrecipitationSumIn
2013-1-1,28.7,13.5,1.5,16.0,6.0,-4.0,83,73,56,30.48,30.19,13,3,0,0.00
2013-1-2,26.3,11.6,1.5,12.0,3.5,-4.0,79,71,53,30.56,30.37,7,2,0,0.00
2013-1-3,29.1,11.2,-1.2,9.0,1.1,-7.0,78,66,41,30.70,30.45,6,2,0,0.00
2013-1-4,26.4,10.9,-1.2,11.0,1.5,-7.0,77,67,50,30.67,30.42,8,2,0,0.00
2013-1-5,29.8,11.5,-1.8,10.0,1.6,-8.0,78,66,42,30.75,30.49,6,2,0,0.00
2013-1-6,42.2,21.7,1.7,15.0,6.2,-5.0,77,56,26,30.68,30.04,6,2,0,0.00
2013-1-7,40.5,25.6,11.4,16.0,10.8,6.0,79,56,28,30.16,29.95,11,2,0,0.00
2013-1-8,36.8,19.0,4.5,16.0,9.2,-1.0,79,67,42,30.42,30.07,6,2,0,0.00
2013-1-9,47.4,25.5,7.9,18.0,11.7,3.0,81,61,26,30.63,30.16,8,2,0,0.00
2013-1-10,41.8,29.2,14.9,23.0,15.8,9.0,78,60,36,30.16,29.56,7,2,0,0.00
2013-1-11,38.8,21.3,-0.2,29.0,9.2,-8.0,92,62,31,30.14,29.39,24,9,0,0.00
2013-1-12,23.2,6.3,-6.3,8.0,-5.2,-14.0,74,61,36,30.34,30.09,11,2,0,0.00
2013-1-13,25.6,12.4,-4.8,8.0,1.1,-13.0,75,62,38,30.31,30.09,7,2,0,0.00
2013-1-14,22.4,12.7,-4.8,12.0,3.8,-12.0,82,68,47,30.40,30.07,12,2,0,0.01
2013-1-15,25.4,4.5,-10.7,2.0,-7.9,-19.0,71,58,35,30.72,30.40,7,2,0,0.00
2013-1-16,27.5,11.2,-1.4,6.0,-1.3,-9.0,72,59,37,30.80,30.58,7,1,0,0.00
2013-1-17,37.9,17.8,2.2,15.0,5.9,-4.0,78,62,37,30.83,30.52,5,1,0,0.00
2013-1-18,39.2,20.9,5.2,19.0,11.0,0.0,82,68,44,30.66,30.38,7,2,0,0.00
2013-1-19,38.6,20.5,7.0,19.0,11.3,2.0,82,69,43,30.63,30.41,5,2,0,0.00
2013-1-20,38.9,20.4,6.0,20.0,11.4,1.0,82,70,45,30.60,30.32,7,2,0,0.00
2013-1-21,40.2,22.9,7.6,21.0,12.9,3.0,82,68,41,30.56,30.34,8,2,0,0.00
2013-1-22,43.5,24.2,10.7,20.0,14.2,6.0,82,68,37,30.57,30.35,6,2,0,0.00
2013-1-23,47.9,28.2,11.2,23.0,16.2,6.0,82,64,32,30.60,30.29,6,2,0,0.00
2013-1-24,50.4,36.0,24.8,31.0,22.4,18.0,82,61,29,30.36,30.15,7,1,0,0.00
2013-1-25,47.7,39.6,34.7,38.0,33.9,30.0,88,80,69,30.23,30.05,5,1,0,0.01
2013-1-26,42.1,39.6,36.6,40.0,37.2,33.0,95,91,83,30.04,29.72,8,2,0,0.63
2013-1-27,52.0,41.6,36.6,44.0,37.8,35.0,96,87,52,29.82,29.70,7,1,0,0.17
2013-1-28,40.9,34.7,29.1,38.0,32.4,25.0,94,91,84,29.74,29.60,9,2,0,0.31
2013-1-29,30.4,25.9,21.4,25.0,14.9,9.0,86,64,45,30.07,29.70,22,8,0,0.00
2013-1-30,38.3,28.8,20.2,23.0,15.7,10.0,71,59,42,30.23,30.07,19,7,0,0.00
2013-1-31,46.7,33.4,20.8,29.0,23.5,17.0,88,69,36,30.30,30.12,15,2,0,0.00
2013-2-1,47.1,33.4,21.3,28.0,23.3,18.0,87,69,43,30.31,30.14,17,4,0,0.01
2013-2-2,45.2,32.8,22.7,26.0,23.2,18.0,87,70,41,30.42,30.22,6,1,0,0.00
2013-2-3,42.2,33.7,25.3,31.0,26.4,22.0,90,76,55,30.28,29.97,9,2,0,0.00
2013-2-4,44.1,30.8,21.9,30.0,25.5,20.0,91,82,58,30.15,29.98,4,1,0,0.00
2013-2-5,50.4,34.0,21.8,30.0,24.7,19.0,90,72,37,30.17,29.92,5,1,0,0.01
2013-2-6,51.1,36.0,24.7,29.0,24.6,21.0,89,67,33,29.97,29.80,11,2,0,0.00
2013-2-7,48.8,33.3,19.9,29.0,22.0,17.0,88,67,30,30.18,29.90,5,1,0,0.01
2013-2-8,58.6,42.3,25.7,23.0,15.7,4.0,75,39,12,29.99,29.47,21,6,0,0.00
2013-2-9,35.0,28.4,23.6,28.0,22.7,15.0,91,79,64,29.78,29.51,20,3,0,0.02
2013-2-10,32.5,27.3,21.4,26.0,23.5,19.0,91,86,73,29.96,29.78,13,2,0,0.08
2013-2-11,34.1,24.9,13.3,24.0,17.2,10.0,91,74,44,30.13,29.91,8,1,0,0.02
2013-2-12,36.5,21.1,5.8,18.0,10.5,0.0,79,65,38,30.33,30.10,16,3,0,0.00
2013-2-13,41.1,25.3,11.1,22.0,14.7,6.0,81,66,45,30.32,30.11,11,2,0,0.00
2013-2-14,46.7,30.6,14.8,22.0,16.5,10.0,83,59,31,30.24,30.05,15,3,0,0.00
2013-2-15,46.5,32.7,18.3,20.0,12.8,8.0,78,49,21,30.35,30.15,22,4,0,0.00
2013-2-16,52.8,32.4,15.9,18.0,14.8,10.0,77,53,22,30.49,30.10,14,3,0,0.00
2013-2-17,55.1,36.1,21.3,19.0,14.2,8.0,74,47,15,30.10,29.64,13,2,0,0.00
2013-2-18,43.6,32.9,20.6,19.0,6.7,0.0,66,36,17,30.12,29.62,20,8,0,0.00
2013-2-19,53.8,34.3,17.0,19.0,9.1,2.0,72,42,13,30.09,29.55,13,3,0,0.00
2013-2-20,37.3,30.7,18.8,33.0,24.4,15.0,91,78,50,29.64,29.46,11,2,0,0.06
2013-2-21,42.8,29.4,16.4,27.0,20.6,12.0,90,72,42,29.83,29.62,18,4,0,0.01
2013-2-22,35.9,28.0,21.8,27.0,18.7,11.0,90,70,46,30.05,29.81,17,5,0,0.03
2013-2-23,41.5,28.5,14.0,28.0,13.4,8.0,89,57,30,30.12,29.68,16,4,0,0.00
2013-2-24,36.8,26.3,17.3,20.0,9.9,3.0,79,52,25,29.97,29.72,13,4,0,0.00
2013-2-25,44.2,27.7,11.2,14.0,9.5,5.0,78,51,23,30.17,29.89,23,5,0,0.00
2013-2-26,37.2,26.6,13.6,17.0,8.4,-3.0,80,50,18,30.11,29.84,20,6,0,0.00
2013-2-27,41.8,27.2,10.0,10.0,5.4,-1.0,73,44,20,30.35,30.11,11,2,0,0.00
2013-2-28,48.5,31.2,11.1,10.0,7.0,1.0,73,41,14,30.43,30.19,21,5,0,0.00
2013-3-1,55.4,41.3,27.3,21.0,15.9,9.0,65,37,25,30.31,30.11,22,8,0,0.00
2013-3-2,62.1,39.7,21.3,25.0,20.2,15.0,81,51,21,30.38,30.09,13,3,0,0.00
2013-3-3,57.6,40.7,26.4,26.0,22.2,18.0,78,52,22,30.08,29.69,11,2,0,0.00
2013-3-4,56.2,43.1,30.7,31.0,22.2,11.0,74,46,26,29.96,29.60,18,5,0,0.00
2013-3-5,56.6,38.2,18.1,18.0,10.9,-1.0,75,39,10,30.27,29.98,6,2,0,0.00
2013-3-6,63.5,45.6,28.2,21.0,16.3,12.0,60,35,15,30.05,29.74,6,2,0,0.00
2013-3-7,66.1,44.9,27.3,23.0,16.0,8.0,71,38,13,29.99,29.68,7,3,0,0.00
2013-3-8,52.6,38.3,30.9,36.0,27.4,16.0,92,67,43,29.83,29.55,18,3,0,0.23
2013-3-9,38.9,33.0,28.1,33.0,26.5,21.0,93,77,59,29.92,29.54,16,4,0,0.01
2013-3-10,51.0,36.3,22.9,24.0,18.8,14.0,88,55,25,30.10,29.93,12,3,0,0.00
2013-3-11,55.7,38.8,19.7,26.0,20.7,16.0,87,54,25,30.15,29.93,17,6,0,0.00
2013-3-12,62.0,46.3,26.0,27.0,23.5,19.0,78,44,22,30.10,29.92,13,3,0,0.00
2013-3-13,66.3,46.1,24.7,28.0,24.0,19.0,84,48,19,30.24,30.06,13,3,0,0.00
2013-3-14,70.8,48.9,25.4,26.0,22.5,19.0,78,42,15,30.25,29.98,12,3,0,0.00
2013-3-15,73.0,51.9,30.6,27.0,21.2,16.0,68,37,12,30.04,29.71,13,3,0,0.00
2013-3-16,66.9,49.3,35.8,30.0,25.3,22.0,64,42,20,29.77,29.58,23,3,0,0.00
2013-3-17,62.0,47.2,31.9,31.0,19.1,4.0,76,41,10,29.65,29.51,28,7,0,0.00
2013-3-18,57.5,43.5,27.9,15.0,7.9,3.0,50,26,12,29.91,29.62,20,5,0,0.00
2013-3-19,58.4,44.1,30.0,17.0,12.1,7.0,48,29,17,30.03,29.84,16,4,0,0.00
2013-3-20,59.3,44.1,23.2,27.0,16.5,8.0,56,35,20,30.13,29.61,8,2,0,0.00
2013-3-21,61.6,48.4,34.7,32.0,18.4,0.0,71,36,10,29.63,29.44,33,8,0,0.00
2013-3-22,61.0,41.8,18.0,9.0,0.4,-17.0,53,22,5,29.79,29.46,24,6,0,0.00
2013-3-23,39.9,31.4,15.9,6.0,-5.8,-15.0,39,21,10,30.16,29.52,18,8,0,0.00
2013-3-24,44.3,28.2,8.6,3.0,-2.1,-6.0,55,31,16,30.23,29.99,18,6,0,0.00
2013-3-25,52.2,32.9,10.9,8.0,2.0,-4.0,54,30,15,30.22,30.03,15,3,0,0.00
2013-3-26,61.2,41.7,23.0,14.0,9.8,5.0,51,30,15,30.07,29.75,10,3,0,0.00
2013-3-27,66.4,49.2,27.2,18.0,12.2,6.0,56,27,11,29.97,29.74,13,2,0,0.00
2013-3-28,67.6,50.6,32.8,17.0,12.8,9.0,48,24,11,29.91,29.79,13,3,0,0.00
2013-3-29,69.8,51.2,34.0,23.0,17.7,11.0,45,29,14,30.02,29.84,14,3,0,0.00
2013-3-30,70.4,51.4,29.0,26.0,19.9,15.0,63,34,12,30.04,29.78,21,5,0,0.00
2013-3-31,69.9,52.5,31.8,26.0,20.4,17.0,61,33,13,29.94,29.71,15,3,0,0.00
2013-4-1,70.4,54.5,36.2,30.0,18.2,5.0,64,29,9,29.83,29.57,16,4,0,0.00
2013-4-2,58.9,44.6,28.2,34.0,19.8,8.0,74,41,18,29.84,29.60,16,3,0,0.01
2013-4-3,67.3,46.4,24.5,30.0,20.9,10.0,80,45,14,30.04,29.82,22,5,0,0.00
2013-4-4,69.4,49.9,27.6,19.0,13.5,10.0,49,26,10,30.08,29.82,11,3,0,0.00
2013-4-5,71.8,56.9,41.2,24.0,17.6,11.0,41,23,13,29.86,29.55,15,4,0,0.00
2013-4-6,68.8,56.5,34.1,27.0,20.5,16.0,59,27,15,29.77,29.53,21,4,0,0.00
2013-4-7,69.1,53.9,34.4,25.0,17.4,11.0,53,27,12,29.70,29.46,20,5,0,0.00
2013-4-8,68.3,49.3,36.0,34.0,21.1,10.0,89,37,13,29.49,29.02,39,8,0,0.02
2013-4-9,41.2,37.1,33.2,38.0,33.5,25.0,94,87,71,29.75,29.19,12,4,0,0.49
2013-4-10,49.5,35.5,23.3,25.0,19.1,10.0,75,54,30,29.94,29.73,19,7,0,0.00
2013-4-11,56.5,44.8,30.1,34.0,25.4,12.0,72,48,36,29.88,29.65,17,6,0,0.00
2013-4-12,64.7,47.4,29.0,31.0,22.7,5.0,83,46,11,29.80,29.64,13,3,0,0.00
2013-4-13,69.1,52.8,27.9,26.0,19.5,12.0,73,35,12,29.75,29.25,19,7,0,0.00
2013-4-14,65.0,57.0,49.4,32.0,22.2,-99.9,48,27,20,29.40,29.22,19,-2,0,0.00
2013-4-15,70.1,57.6,43.1,30.0,22.9,15.0,60,30,12,29.43,29.24,23,7,0,0.00
2013-4-16,72.0,59.4,48.6,28.0,19.0,5.0,38,23,8,29.41,29.21,29,10,0,0.00
2013-4-17,51.4,42.5,29.7,27.0,18.3,10.0,59,39,24,29.89,29.38,23,7,0,0.00
2013-4-18,45.1,36.0,27.5,10.0,3.7,-1.0,45,27,15,30.16,29.88,24,11,0,0.00
2013-4-19,56.9,40.1,16.1,10.0,5.1,0.0,50,26,12,30.31,29.81,17,5,0,0.00
2013-4-20,61.2,47.9,29.1,26.0,16.9,10.0,53,31,16,29.86,29.69,20,5,0,0.00
2013-4-21,65.6,47.7,26.6,26.0,16.6,4.0,71,36,9,30.02,29.78,24,5,0,0.00
2013-4-22,74.6,55.7,30.0,20.0,15.5,11.0,54,25,10,29.82,29.38,20,6,0,0.00
2013-4-23,58.0,50.3,34.9,23.0,8.9,-10.0,40,20,9,29.94,29.41,28,9,0,0.00
2013-4-24,66.3,46.3,22.7,8.0,-0.2,-8.0,30,16,6,30.05,29.82,16,3,0,0.00
2013-4-25,72.0,54.5,34.7,28.0,16.2,6.0,41,23,13,29.87,29.59,25,4,0,0.00
2013-4-26,69.8,54.9,36.0,34.0,20.4,2.0,68,33,7,29.97,29.66,18,4,0,0.00
2013-4-27,73.7,55.7,32.4,25.0,15.5,8.0,54,25,9,30.04,29.77,15,4,0,0.00
2013-4-28,76.8,57.0,32.5,19.0,12.6,7.0,40,20,7,29.90,29.60,20,4,0,0.00
2013-4-29,80.1,60.3,35.8,23.0,16.7,12.0,47,21,8,29.70,29.40,17,5,0,0.00
2013-4-30,82.0,64.0,39.6,23.0,14.5,7.0,40,18,7,29.52,29.30,25,7,0,0.00
2013-5-1,66.1,58.1,43.9,30.0,8.2,-14.0,41,16,5,30.00,29.35,23,8,0,0.00
2013-5-2,62.7,48.5,28.7,10.0,2.6,-4.0,37,17,7,30.29,29.99,16,4,0,0.00
2013-5-3,68.9,48.2,25.6,11.0,3.9,-4.0,41,19,6,30.18,29.71,10,2,0,0.00
2013-5-4,74.9,56.8,29.7,13.0,7.6,-1.0,34,16,7,29.80,29.48,17,3,0,0.00
2013-5-5,72.8,62.8,54.2,28.0,16.7,7.0,28,17,12,29.70,29.51,14,4,0,0.00
2013-5-6,60.1,53.8,47.0,46.0,39.1,26.0,89,60,28,29.83,29.57,10,3,0,0.15
2013-5-7,69.6,55.6,38.2,44.0,31.4,16.0,92,49,14,29.85,29.58,16,3,0,0.01
2013-5-8,59.2,51.5,40.5,41.0,31.7,24.0,84,50,26,29.86,29.59,14,5,0,0.02
2013-5-9,63.1,48.4,33.7,39.0,33.0,28.0,80,58,31,29.91,29.82,14,3,0,0.00
2013-5-10,70.9,53.2,36.0,37.0,32.7,28.0,83,51,21,30.00,29.83,15,3,0,0.00
2013-5-11,73.5,56.8,36.9,38.0,30.8,23.0,79,44,16,30.15,29.95,11,3,0,0.00
2013-5-12,78.5,61.6,39.8,35.0,29.9,27.0,67,35,16,30.08,29.75,16,4,0,0.00
2013-5-13,84.1,66.4,42.6,33.0,28.1,21.0,58,28,10,29.93,29.67,9,2,0,0.00
2013-5-14,85.3,69.0,49.1,36.0,31.7,22.0,54,28,10,29.72,29.48,20,5,0,0.00
2013-5-15,85.1,69.7,49.5,40.0,26.6,7.0,59,25,7,29.64,29.43,19,6,0,0.00
2013-5-16,82.8,65.3,40.9,26.0,17.9,11.0,38,18,8,29.66,29.44,14,3,0,0.00
2013-5-17,81.6,64.1,40.5,24.0,15.9,3.0,43,19,5,29.68,29.49,18,4,0,0.00
2013-5-18,74.2,64.2,55.3,38.0,25.0,18.0,52,24,13,29.63,29.49,18,4,0,0.01
2013-5-19,69.9,59.7,47.6,38.0,26.8,17.0,54,31,14,29.66,29.53,20,7,0,0.00
2013-5-20,66.9,55.5,46.7,39.0,30.6,24.0,63,40,21,29.75,29.57,14,4,0,0.00
2013-5-21,74.2,56.5,33.7,36.0,27.6,18.0,81,41,12,29.88,29.56,15,4,0,0.00
2013-5-22,83.4,64.4,40.9,29.0,21.9,16.0,51,25,9,29.64,29.36,13,3,0,0.00
2013-5-23,87.4,67.4,42.8,30.0,18.7,9.0,43,20,6,29.59,29.41,18,4,0,0.00
2013-5-24,84.3,65.4,39.8,26.0,18.0,11.0,42,19,7,29.73,29.51,13,3,0,0.00
2013-5-25,85.3,65.7,39.3,23.0,16.2,4.0,38,17,8,29.76,29.48,11,2,0,0.00
2013-5-26,82.6,64.0,42.6,26.0,14.8,7.0,37,17,6,29.74,29.51,15,4,0,0.00
2013-5-27,79.6,62.4,39.5,20.0,14.6,9.0,39,18,8,29.69,29.44,11,2,0,0.00
2013-5-28,79.0,62.4,40.9,37.0,19.1,10.0,39,21,8,29.55,29.25,16,4,0,0.00
2013-5-29,72.1,61.1,48.5,44.0,29.6,14.0,70,36,12,29.48,29.33,27,7,0,0.01
2013-5-30,78.1,62.9,42.8,32.0,22.5,14.0,51,25,9,29.59,29.41,23,6,0,0.00
2013-5-31,77.7,61.4,38.8,27.0,16.3,5.0,48,21,6,29.73,29.55,22,7,0,0.00
2013-6-1,82.8,61.7,32.9,16.0,11.6,6.0,36,16,6,29.86,29.64,16,4,0,0.00
2013-6-2,88.4,68.2,41.2,30.0,21.5,11.0,35,19,8,29.77,29.38,13,4,0,0.00
2013-6-3,85.5,69.3,46.7,35.0,26.6,20.0,49,23,9,29.56,29.41,14,4,0,0.00
2013-6-4,89.3,69.9,46.4,31.0,24.5,20.0,43,21,8,29.61,29.42,14,2,0,0.00
2013-6-5,88.2,70.8,47.4,29.0,23.1,17.0,42,19,9,29.59,29.43,15,3,0,0.00
2013-6-6,89.0,70.6,46.1,29.0,21.0,16.0,37,18,7,29.63,29.43,22,4,0,0.00
2013-6-7,89.9,70.4,50.2,39.0,27.9,19.0,43,23,8,29.62,29.38,15,4,0,0.00
2013-6-8,94.3,74.0,48.5,34.0,25.8,17.0,44,20,6,29.54,29.36,20,6,0,0.00
2013-6-9,95.6,76.8,51.0,35.0,25.8,19.0,45,17,8,29.58,29.42,20,4,0,0.00
2013-6-10,97.1,77.9,51.4,38.0,24.7,17.0,34,16,7,29.58,29.36,13,4,0,0.00
2013-6-11,92.1,74.1,49.2,33.0,21.4,15.0,37,17,6,29.65,29.46,21,5,0,0.00
2013-6-12,93.4,73.8,48.0,34.0,21.4,15.0,32,16,6,29.72,29.55,13,2,0,0.00
2013-6-13,93.4,77.0,52.5,34.0,26.4,19.0,32,17,9,29.68,29.43,23,3,0,0.00
2013-6-14,90.5,78.5,60.2,43.0,28.4,15.0,44,19,8,29.58,29.38,16,4,0,0.00
2013-6-15,89.3,69.0,50.4,48.0,29.8,14.0,71,26,11,29.80,29.52,16,4,0,0.06
2013-6-16,89.5,71.6,52.8,47.0,37.4,30.0,74,36,12,29.81,29.54,13,3,0,0.00
2013-6-17,91.2,73.8,53.5,36.0,27.4,11.0,44,21,6,29.70,29.44,12,3,0,0.00
2013-6-18,92.3,72.4,48.2,47.0,21.3,6.0,39,18,4,29.66,29.39,15,4,0,0.00
2013-6-19,92.9,72.6,46.5,27.0,11.4,1.0,27,12,4,29.55,29.32,16,4,0,0.00
2013-6-20,91.0,72.0,44.1,24.0,14.4,5.0,28,13,5,29.59,29.37,13,3,0,0.00
2013-6-21,89.3,70.4,45.5,26.0,18.7,11.0,35,16,7,29.64,29.41,13,3,0,0.00
2013-6-22,89.0,70.8,48.5,27.0,17.7,11.0,32,16,6,29.63,29.41,16,4,0,0.00
2013-6-23,90.3,70.9,46.2,31.0,16.2,9.0,28,15,5,29.59,29.32,16,3,0,0.00
2013-6-24,86.5,69.6,50.2,32.0,17.1,11.0,35,16,6,29.60,29.43,17,4,0,0.00
2013-6-25,88.4,71.5,46.4,30.0,22.7,12.0,30,17,11,29.70,29.53,18,4,0,0.00
2013-6-26,94.5,76.0,50.1,36.0,28.6,24.0,40,20,10,29.73,29.55,17,4,0,0.00
2013-6-27,100.2,77.9,53.6,36.0,30.3,25.0,40,20,8,29.74,29.55,9,2,0,0.00
2013-6-28,102.0,80.9,59.8,49.0,35.9,28.0,34,21,9,29.73,29.56,22,4,0,0.02
2013-6-29,97.8,78.2,58.3,48.0,41.5,37.0,53,30,12,29.75,29.53,19,4,0,0.00
2013-6-30,95.9,79.3,59.9,49.0,43.2,35.0,60,31,13,29.70,29.42,16,3,0,0.00
2013-7-1,96.3,77.8,56.9,48.0,42.6,26.0,62,32,8,29.74,29.46,16,4,0,0.00
2013-7-2,88.6,75.5,60.4,63.0,46.4,41.0,59,38,19,29.75,29.44,12,3,0,0.04
2013-7-3,94.5,77.4,62.6,52.0,45.1,26.0,65,36,9,29.67,29.32,17,6,0,0.00
2013-7-4,92.5,78.0,60.1,47.0,41.4,38.0,53,30,15,29.56,29.37,14,2,0,0.00
2013-7-5,94.5,80.2,65.2,53.0,44.3,37.0,48,31,15,29.51,29.30,17,4,0,0.00
2013-7-6,94.5,75.4,60.4,57.0,48.8,40.0,70,43,15,29.62,29.38,16,3,0,0.00
2013-7-7,94.5,79.7,61.5,55.0,47.1,40.0,69,36,15,29.64,29.41,11,2,0,0.00
2013-7-8,95.9,80.7,63.7,52.0,43.8,33.0,59,31,12,29.67,29.52,16,4,0,0.00
2013-7-9,96.8,80.9,61.6,52.0,40.8,-99.9,62,29,11,29.74,29.41,11,-19,0,0.00
2013-7-10,99.4,79.7,63.5,51.0,44.7,37.0,50,31,12,29.65,29.50,20,4,0,0.00
2013-7-11,93.6,74.4,62.1,62.0,51.4,45.0,81,49,19,29.74,29.45,20,3,0,0.07
2013-7-12,89.7,74.7,61.2,62.0,55.0,44.0,84,56,22,29.65,29.51,12,3,0,0.02
2013-7-13,91.2,75.3,60.1,59.0,51.9,43.0,90,51,19,29.73,29.57,15,2,0,0.01
2013-7-14,94.7,76.9,66.6,63.0,53.1,46.0,78,47,19,29.67,29.46,14,3,0,0.33
2013-7-15,85.3,69.6,61.5,62.0,59.1,51.0,89,72,31,29.70,29.55,14,3,0,0.05
2013-7-16,82.6,70.8,60.2,59.0,53.9,49.0,92,59,31,29.81,29.64,8,1,0,0.03
2013-7-17,86.3,74.2,61.8,55.0,48.5,42.0,78,44,22,29.84,29.65,10,2,0,0.00
2013-7-18,89.0,77.0,60.7,52.0,48.1,44.0,69,38,22,29.79,29.54,8,2,0,0.00
2013-7-19,91.4,76.8,63.9,57.0,50.2,44.0,66,41,21,29.67,29.48,19,4,0,0.00
2013-7-20,91.2,75.5,62.7,56.0,51.0,40.0,73,46,17,29.65,29.43,18,2,0,0.00
2013-7-21,92.3,75.3,59.5,53.0,48.2,41.0,70,42,20,29.59,29.48,28,3,0,0.00
2013-7-22,94.0,76.4,59.3,50.0,46.4,37.0,63,38,16,29.67,29.47,28,4,0,0.00
2013-7-23,94.3,77.8,63.9,51.0,46.4,40.0,55,35,18,29.65,29.47,24,3,0,0.00
2013-7-24,95.1,79.1,66.4,54.0,45.3,37.0,59,33,14,29.68,29.47,18,3,0,0.00
2013-7-25,92.5,77.6,62.4,54.0,49.4,39.0,72,42,19,29.73,29.49,16,3,0,0.00
2013-7-26,92.5,78.5,65.6,54.0,48.4,40.0,58,37,16,29.75,29.57,20,4,0,0.00
2013-7-27,89.0,75.8,59.2,54.0,49.5,43.0,73,43,21,29.83,29.50,18,3,0,0.00
2013-7-28,84.7,72.1,64.3,62.0,54.0,45.0,86,55,27,29.63,29.47,15,4,0,0.12
2013-7-29,87.2,72.9,58.6,55.0,46.5,39.0,75,43,21,29.73,29.58,19,4,0,0.00
2013-7-30,91.4,75.4,56.9,51.0,40.8,31.0,69,35,12,29.84,29.68,17,3,0,0.01
2013-7-31,95.1,78.6,55.9,42.0,36.5,32.0,50,25,12,29.85,29.58,11,2,0,0.00
2013-8-1,85.7,73.6,66.8,57.0,47.8,34.0,68,42,24,29.75,29.57,11,3,0,0.00
2013-8-2,89.9,74.4,62.6,57.0,51.2,42.0,72,47,24,29.74,29.53,22,4,0,0.00
2013-8-3,89.3,74.2,60.5,60.0,53.1,46.0,91,53,22,29.74,29.58,14,4,0,0.05
2013-8-4,93.2,75.1,59.2,59.0,49.0,42.0,73,45,18,29.74,29.58,18,3,0,0.03
2013-8-5,90.1,72.6,56.5,58.0,51.4,42.0,92,54,19,29.81,29.58,14,3,0,0.00
2013-8-6,88.6,69.9,60.2,59.0,52.3,43.0,93,59,21,29.74,29.54,18,3,0,0.32
2013-8-7,73.5,63.9,58.1,61.0,57.6,54.0,94,81,53,29.77,29.61,11,1,0,0.42
2013-8-8,81.6,64.8,55.7,60.0,53.2,40.0,95,71,24,29.79,29.66,15,2,0,0.01
2013-8-9,86.7,70.0,52.2,50.0,44.4,35.0,84,47,17,29.82,29.64,12,3,0,0.00
2013-8-10,84.7,65.3,55.9,55.0,49.6,43.0,82,60,25,29.98,29.70,26,6,0,0.30
2013-8-11,84.1,66.5,51.0,51.0,46.0,36.0,86,54,18,29.99,29.69,13,2,0,0.00
2013-8-12,85.5,72.5,59.6,52.0,45.7,37.0,75,42,20,29.79,29.64,12,2,0,0.00
2013-8-13,88.6,72.8,56.5,50.0,39.6,26.0,67,36,11,29.83,29.62,12,3,0,0.00
2013-8-14,90.1,70.3,56.3,45.0,37.9,31.0,55,34,14,29.79,29.61,9,2,0,0.00
2013-8-15,92.7,74.2,55.7,44.0,33.2,23.0,44,26,9,29.77,29.59,20,3,0,0.00
2013-8-16,94.5,76.1,55.3,41.0,36.2,29.0,53,27,10,29.79,29.61,13,2,0,0.00
2013-8-17,92.5,72.9,57.8,54.0,42.6,36.0,56,36,15,29.79,29.62,23,4,0,0.00
2013-8-18,90.1,74.7,59.0,51.0,46.6,40.0,73,41,18,29.80,29.58,6,1,0,0.00
2013-8-19,94.0,77.3,61.0,55.0,46.9,41.0,63,38,16,29.75,29.55,14,3,0,0.00
2013-8-20,91.0,75.9,59.6,55.0,48.8,42.0,78,43,19,29.69,29.54,22,3,0,0.00
2013-8-21,93.8,75.6,61.2,59.0,46.4,42.0,66,39,17,29.71,29.54,19,4,0,0.03
2013-8-22,87.2,75.0,56.9,58.0,51.8,43.0,93,49,22,29.86,29.60,10,2,0,0.01
2013-8-23,90.7,75.1,58.9,53.0,43.7,29.0,76,40,11,29.69,29.48,16,3,0,0.00
2013-8-24,85.1,70.2,63.4,59.0,51.9,44.0,82,56,24,29.75,29.57,12,2,0,0.12
2013-8-25,76.1,66.1,61.6,64.0,59.5,56.0,93,81,53,29.90,29.72,13,3,0,0.47
2013-8-26,85.9,71.9,61.0,62.0,57.8,48.0,93,66,27,29.92,29.67,9,1,0,0.00
2013-8-27,88.0,73.0,58.1,60.0,54.9,45.0,90,58,23,29.81,29.60,12,2,0,0.00
2013-8-28,89.9,74.3,58.0,59.0,51.0,39.0,87,51,17,29.74,29.61,9,1,0,0.00
2013-8-29,89.7,74.0,60.4,62.0,51.9,48.0,82,50,24,29.77,29.64,11,3,0,0.33
2013-8-30,90.7,76.2,62.1,61.0,54.2,46.0,85,52,21,29.81,29.57,5,1,0,0.00
2013-8-31,90.3,75.9,59.8,57.0,52.3,45.0,78,47,21,29.69,29.53,14,2,0,0.00
2013-9-1,91.0,75.9,59.2,59.0,50.4,45.0,72,45,21,29.70,29.53,10,2,0,0.02
2013-9-2,89.5,75.1,59.2,61.0,50.8,40.0,85,49,19,29.76,29.57,9,2,0,0.00
2013-9-3,88.2,75.0,63.5,56.0,51.3,47.0,63,46,25,29.75,29.61,13,2,0,0.00
2013-9-4,92.7,76.6,59.8,55.0,49.7,43.0,75,43,18,29.80,29.61,9,1,0,0.00
2013-9-5,91.0,77.8,62.1,49.0,40.1,30.0,56,29,12,29.78,29.63,10,2,0,0.00
2013-9-6,92.9,74.4,54.7,47.0,36.5,34.0,53,29,13,29.81,29.58,10,2,0,0.00
2013-9-7,91.8,75.8,56.6,45.0,40.6,34.0,55,31,15,29.71,29.52,11,3,0,0.00
2013-9-8,87.0,72.4,58.6,52.0,48.4,45.0,66,45,24,29.69,29.47,16,2,0,0.00
2013-9-9,83.4,65.2,55.7,58.0,52.9,45.0,91,69,27,29.68,29.45,18,2,0,0.84
2013-9-10,65.8,61.7,59.2,60.0,57.6,56.0,92,86,76,29.76,29.53,12,3,0,0.32
2013-9-11,79.0,66.6,57.0,60.0,53.8,44.0,93,67,30,29.81,29.65,5,1,0,0.00
2013-9-12,75.3,63.9,56.2,60.0,55.0,49.0,91,74,49,29.84,29.65,12,3,0,0.42
2013-9-13,74.7,64.7,54.5,60.0,55.2,53.0,94,73,52,29.75,29.57,9,2,0,0.00
2013-9-14,74.6,64.4,56.5,57.0,53.7,51.0,89,70,47,29.69,29.52,16,3,0,0.05
2013-9-15,78.1,65.0,54.8,53.0,51.2,48.0,88,64,35,29.78,29.64,11,2,0,0.00
2013-9-16,80.5,67.0,53.9,53.0,50.6,45.0,86,60,29,29.84,29.65,12,2,0,0.00
2013-9-17,82.0,69.6,56.9,54.0,51.0,44.0,83,55,27,29.75,29.47,9,3,0,0.00
2013-9-18,78.3,66.0,56.5,59.0,54.2,50.0,90,68,39,29.63,29.46,12,3,0,0.10
2013-9-19,79.8,64.7,51.0,52.0,44.4,28.0,88,55,15,29.70,29.55,16,2,0,0.00
2013-9-20,81.8,63.5,44.8,45.0,40.1,34.0,83,49,18,29.82,29.65,6,1,0,0.00
2013-9-21,80.3,66.7,51.9,52.0,45.2,39.0,77,49,26,29.75,29.47,10,2,0,0.00
2013-9-22,75.1,60.0,47.9,58.0,50.4,38.0,89,72,35,29.55,29.24,22,3,0,0.23
2013-9-23,68.4,55.0,39.6,44.0,38.0,32.0,92,58,27,29.87,29.49,17,4,0,0.01
2013-9-24,76.3,56.6,39.3,41.0,37.3,30.0,87,55,19,29.98,29.67,6,1,0,0.00
2013-9-25,81.6,63.0,42.2,41.0,34.0,25.0,80,42,14,29.69,29.34,13,4,0,0.00
2013-9-26,77.2,65.0,43.9,32.0,26.9,21.0,61,25,15,29.52,29.32,17,5,0,0.00
2013-9-27,65.6,51.6,36.6,45.0,33.7,17.0,90,56,20,29.97,29.32,11,3,0,0.05
2013-9-28,65.3,45.8,27.6,31.0,25.7,18.0,88,53,19,30.14,29.97,6,1,0,0.00
2013-9-29,72.1,51.5,30.9,32.0,26.1,18.0,83,45,13,30.15,29.85,11,2,0,0.00
2013-9-30,76.8,56.6,37.3,32.0,27.0,20.0,72,38,12,29.93,29.69,10,2,0,0.00
2013-10-1,77.9,56.4,37.0,35.0,27.7,20.0,74,40,12,29.87,29.69,10,2,0,0.00
2013-10-2,75.8,55.5,35.3,32.0,26.4,19.0,70,39,12,29.90,29.65,11,2,0,0.00
2013-10-3,74.7,57.3,37.9,33.0,28.5,23.0,68,38,17,29.79,29.39,17,4,0,0.00
2013-10-4,54.5,45.8,35.2,30.0,20.5,12.0,62,39,19,30.06,29.45,21,8,0,0.00
2013-10-5,59.5,43.7,24.2,22.0,18.7,16.0,74,41,20,30.24,30.02,13,2,0,0.00
2013-10-6,66.0,44.8,26.6,26.0,20.6,17.0,71,43,18,30.26,30.07,6,2,0,0.00
2013-10-7,74.9,52.1,31.0,29.0,23.6,21.0,71,39,13,30.17,29.79,9,2,0,0.00
2013-10-8,74.7,56.7,38.9,30.0,26.1,23.0,56,35,16,29.90,29.55,11,2,0,0.00
2013-10-9,72.0,56.4,37.6,38.0,25.9,18.0,65,36,13,29.73,29.44,11,3,0,0.00
2013-10-10,59.8,47.5,36.3,45.0,36.7,29.0,92,71,33,29.86,29.37,25,3,0,0.50
2013-10-11,56.3,43.3,31.8,39.0,35.7,30.0,94,76,48,29.97,29.82,7,1,0,0.00
2013-10-12,62.4,47.4,33.8,39.0,33.3,28.0,92,64,27,30.06,29.82,7,3,0,0.01
2013-10-13,73.2,56.1,41.6,39.0,33.6,28.0,78,47,22,29.91,29.58,13,3,0,0.00
2013-10-14,58.4,48.2,35.5,35.0,29.2,23.0,83,51,26,29.97,29.63,15,4,0,0.00
2013-10-15,59.8,45.2,29.0,33.0,25.7,19.0,84,52,22,30.04,29.78,15,4,0,0.00
2013-10-16,53.3,42.6,27.8,33.0,24.6,17.0,89,54,26,30.06,29.80,20,5,0,0.00
2013-10-17,59.0,41.6,23.0,27.0,18.9,7.0,84,48,13,30.11,29.85,13,3,0,0.00
2013-10-18,58.9,44.4,26.1,22.0,14.6,6.0,76,37,14,30.01,29.85,16,6,0,0.00
2013-10-19,60.9,43.3,23.8,19.0,15.9,11.0,64,36,18,30.17,29.89,14,3,0,0.00
2013-10-20,65.0,45.6,25.7,24.0,18.7,14.0,74,40,15,29.98,29.73,18,3,0,0.00
2013-10-21,64.2,46.7,28.4,24.0,18.7,11.0,69,37,14,30.04,29.77,11,2,0,0.00
2013-10-22,65.6,45.1,27.0,24.0,19.7,17.0,66,41,16,30.19,30.00,5,1,0,0.00
2013-10-23,70.6,48.6,29.8,28.0,21.8,18.0,71,41,14,30.15,29.87,5,2,0,0.00
2013-10-24,72.8,54.9,33.8,38.0,24.4,20.0,64,35,15,30.02,29.84,18,3,0,0.00
2013-10-25,65.8,53.4,42.3,42.0,39.1,37.0,84,60,35,30.01,29.82,15,3,0,0.00
2013-10-26,65.0,50.2,37.2,41.0,36.9,32.0,90,64,29,30.16,29.96,7,2,0,0.00
2013-10-27,66.1,49.7,34.3,36.0,31.8,29.0,83,55,25,30.05,29.62,6,2,0,0.00
2013-10-28,68.4,52.7,37.6,35.0,24.7,17.0,73,40,15,29.77,29.52,12,3,0,0.00
2013-10-29,60.9,48.0,34.0,36.0,28.0,20.0,92,49,21,29.79,29.53,15,4,0,0.10
2013-10-30,49.9,37.0,30.9,40.0,31.9,26.0,93,83,41,29.91,29.75,11,3,0,0.02
2013-10-31,47.9,38.4,28.5,35.0,28.8,25.0,93,71,42,30.07,29.85,15,5,0,0.01
2013-11-1,57.6,43.5,29.1,30.0,25.2,22.0,80,52,26,30.15,29.96,19,5,0,0.00
2013-11-2,62.0,41.9,25.6,28.0,23.7,19.0,85,55,19,30.25,29.81,6,2,0,0.00
2013-11-3,62.6,45.6,32.8,29.0,22.6,15.0,68,44,16,29.81,29.55,16,3,0,0.00
2013-11-4,57.3,41.5,22.5,35.0,24.7,17.0,80,55,27,29.93,29.66,10,2,0,0.00
2013-11-5,46.1,38.2,26.0,35.0,16.2,5.0,80,44,19,30.21,29.65,21,7,0,0.01
2013-11-6,48.5,30.8,14.0,13.0,8.9,5.0,75,45,19,30.49,30.22,13,2,0,0.00
2013-11-7,58.4,36.9,20.0,18.0,14.9,11.0,71,46,19,30.53,30.13,6,2,0,0.00
2013-11-8,62.3,42.7,27.2,21.0,17.0,11.0,69,40,15,30.22,29.88,9,2,0,0.00
2013-11-9,63.5,42.3,24.4,20.0,16.1,12.0,65,39,16,30.22,29.99,11,2,0,0.00
2013-11-10,65.3,42.7,25.7,21.0,16.8,14.0,63,40,16,30.32,30.06,6,2,0,0.00
2013-11-11,62.7,42.0,23.8,21.0,17.9,15.0,69,42,19,30.35,30.10,9,2,0,0.00
2013-11-12,67.1,43.8,25.8,21.0,17.8,15.0,64,40,15,30.48,30.21,5,2,0,0.00
2013-11-13,58.4,42.2,28.4,30.0,25.0,19.0,73,53,30,30.38,29.97,6,2,0,0.00
2013-11-14,57.8,39.4,27.8,29.0,22.7,17.0,78,55,26,30.09,29.81,13,3,0,0.00
2013-11-15,56.3,42.0,28.1,40.0,28.0,18.0,88,61,31,29.84,29.41,14,3,0,0.03
2013-11-16,51.0,42.5,29.8,40.0,32.3,28.0,94,70,42,29.64,29.47,21,4,0,0.01
2013-11-17,54.1,41.3,29.0,34.0,27.8,23.0,87,62,35,30.09,29.59,14,2,0,0.00
2013-11-18,56.5,38.3,23.5,29.0,25.0,20.0,86,63,29,30.27,30.00,6,2,0,0.00
2013-11-19,58.7,41.7,26.3,31.0,26.3,21.0,84,58,31,30.07,29.74,6,2,0,0.00
2013-11-20,53.5,39.4,25.3,39.0,30.4,21.0,93,73,40,29.88,29.70,9,1,0,0.04
2013-11-21,49.9,43.1,37.8,43.0,39.3,36.0,95,87,68,29.95,29.70,7,2,0,0.12
2013-11-22,41.9,39.5,37.2,39.0,36.8,33.0,92,90,83,30.14,29.88,10,3,0,0.43
2013-11-23,43.9,35.3,32.1,36.0,26.2,-99.9,94,81,66,30.19,30.01,10,-52,0,0.13
2013-11-24,32.7,27.8,27.2,31.0,21.2,-99.9,94,86,80,30.18,30.07,6,-40,0,0.01
2013-11-25,35.6,32.5,28.1,30.0,28.8,26.0,92,86,78,30.28,29.99,8,2,0,0.14
2013-11-26,38.8,34.3,28.8,30.0,28.4,25.0,88,79,67,30.37,30.27,6,2,0,0.02
2013-11-27,46.1,34.0,24.7,31.0,27.2,22.0,90,78,51,30.35,30.10,5,1,0,0.00
2013-11-28,50.5,35.4,24.4,33.0,27.4,22.0,91,75,44,30.23,30.03,4,1,0,0.01
2013-11-29,49.9,33.9,23.3,34.0,27.4,20.0,92,79,46,30.35,30.16,7,1,0,0.01
2013-11-30,36.2,30.4,25.7,33.0,28.3,24.0,95,92,82,30.41,30.21,5,1,0,0.00
2013-12-1,31.9,31.0,30.0,30.0,28.5,26.0,94,90,84,30.38,30.27,8,2,0,0.00
2013-12-2,38.9,31.7,26.6,29.0,26.6,24.0,89,82,67,30.27,29.87,5,1,0,0.00
2013-12-3,52.8,39.1,25.1,30.0,24.8,20.0,90,61,28,29.88,29.33,11,3,0,0.01
2013-12-4,46.7,34.0,19.4,33.0,22.8,13.0,91,66,42,29.92,29.27,24,7,0,0.04
2013-12-5,31.3,21.3,12.9,19.0,12.4,7.0,84,70,45,30.00,29.88,13,2,0,0.01
2013-12-6,30.7,21.5,15.7,17.0,10.6,3.0,85,65,31,30.22,29.98,5,1,0,0.00
2013-12-7,36.2,28.3,16.9,25.0,12.2,5.0,86,52,37,30.13,29.65,10,3,0,0.00
2013-12-8,28.4,21.1,6.3,25.0,8.3,-3.0,91,60,31,30.17,29.63,22,6,0,0.00
2013-12-9,24.5,10.7,-0.6,4.0,-3.0,-8.0,72,56,28,30.68,30.19,16,5,0,0.00
2013-12-10,27.3,11.6,0.1,3.0,-1.2,-7.0,73,59,31,30.74,30.50,6,1,0,0.00
2013-12-11,35.6,17.7,3.4,11.0,5.6,-3.0,78,62,34,30.72,30.50,6,2,0,0.00
2013-12-12,45.4,22.6,8.6,17.0,10.9,3.0,82,65,24,30.68,30.16,10,1,0,0.00
2013-12-13,39.8,28.2,19.2,19.0,16.2,13.0,84,63,39,30.16,29.96,22,4,0,0.00
2013-12-14,40.5,24.3,10.7,19.0,13.4,7.0,83,66,35,30.55,30.11,7,2,0,0.00
2013-12-15,41.3,24.0,11.4,19.0,14.0,7.0,84,68,40,30.58,30.40,6,1,0,0.00
2013-12-16,42.5,25.2,12.6,21.0,15.8,9.0,84,70,42,30.60,30.37,11,2,0,0.00
2013-12-17,46.1,26.8,12.8,24.0,17.1,9.0,85,70,38,30.66,30.34,5,2,0,0.00
2013-12-18,46.0,30.2,17.2,24.0,20.0,14.0,87,68,40,30.36,29.82,6,2,0,0.00
2013-12-19,55.1,39.0,27.3,25.0,21.0,17.0,77,52,24,29.80,29.49,10,2,0,0.00
2013-12-20,46.4,35.2,22.1,31.0,25.5,19.0,89,69,49,29.66,29.54,9,2,0,0.00
2013-12-21,36.9,27.9,16.1,27.0,19.6,13.0,91,73,51,29.78,29.54,20,6,0,0.00
2013-12-22,40.3,29.1,13.6,17.0,13.2,7.0,76,53,33,30.34,29.79,19,4,0,0.00
2013-12-23,41.3,27.2,12.3,19.0,14.5,7.0,81,61,40,30.60,30.23,9,2,0,0.00
2013-12-24,44.8,29.2,15.1,21.0,16.3,11.0,84,61,39,30.50,30.19,16,3,0,0.00
2013-12-25,42.8,25.0,10.7,18.0,11.4,5.0,80,59,31,30.57,30.29,6,2,0,0.00
2013-12-26,41.5,24.0,10.5,16.0,11.5,6.0,81,62,35,30.61,30.33,7,2,0,0.00
2013-12-27,47.1,26.7,12.9,19.0,13.4,8.0,82,61,27,30.57,30.25,6,2,0,0.00
2013-12-28,43.8,28.1,13.6,20.0,15.4,9.0,82,62,36,30.28,29.91,11,2,0,0.00
2013-12-29,44.2,26.5,13.1,20.0,14.2,7.0,85,63,35,30.27,29.92,11,2,0,0.00
2013-12-30,43.6,23.6,9.3,18.0,9.0,5.0,82,58,24,30.52,30.24,6,1,0,0.00
2013-12-31,47.0,28.9,14.1,18.0,12.3,7.0,77,54,27,30.47,30.08,11,2,0,0.00
2014-1-1,52.5,32.6,14.3,19.0,11.6,8.0,80,48,17,30.29,30.03,19,6,0,0.00
2014-1-2,45.8,26.7,12.3,16.0,10.1,5.0,72,53,26,30.43,30.21,6,2,0,0.00